Time;durP1;ratioP1;P1;durP2;ratioP2;P2;SDS_P1;SDS_P2;PMS_P1;PMS_P2;Temp;Humidity;BMP_temperature;BMP_pressure;BME280_temperature;BME280_humidity;BME280_pressure;Samples;Min_cycle;Max_cycle;Signal;HPM_P1;HPM_P2
2022/08/01 00:01:43;;;;;;;5.30;4.80;;;;;;;;;;4952216;29;20556;-75
2022/08/01 00:04:08;;;;;;;6.57;5.20;;;;;;;;;;4953209;28;20031;-75
2022/08/01 00:06:34;;;;;;;6.13;5.53;;;;;;;;;;4953382;28;20108;-76
2022/08/01 00:09:00;;;;;;;7.55;5.28;;;;;;;;;;4952001;29;20105;-76
2022/08/01 00:11:26;;;;;;;8.57;5.40;;;;;;;;;;4952019;29;20062;-76
2022/08/01 00:13:52;;;;;;;5.90;5.35;;;;;;;;;;4951796;29;20027;-75
2022/08/01 00:16:18;;;;;;;8.13;5.80;;;;;;;;;;4952046;29;20037;-75
2022/08/01 00:18:43;;;;;;;10.48;6.20;;;;;;;;;;4953155;28;20031;-75
2022/08/01 00:21:09;;;;;;;9.35;5.50;;;;;;;;;;4967491;28;20718;-75
2022/08/01 00:23:34;;;;;;;9.85;5.90;;;;;;;;;;4952927;28;20048;-74
2022/08/01 00:26:00;;;;;;;6.22;5.63;;;;;;;;;;4952907;28;20027;-75
2022/08/01 00:28:26;;;;;;;9.38;6.45;;;;;;;;;;4967602;28;20046;-75
2022/08/01 00:30:51;;;;;;;8.38;5.70;;;;;;;;;;4951736;29;20081;-75
2022/08/01 00:33:16;;;;;;;10.48;6.15;;;;;;;;;;4953000;28;20078;-75
2022/08/01 00:35:42;;;;;;;6.93;5.53;;;;;;;;;;4953353;28;20402;-75
2022/08/01 00:38:07;;;;;;;9.75;6.57;;;;;;;;;;4952834;28;20027;-76
2022/08/01 00:40:33;;;;;;;6.72;5.60;;;;;;;;;;4953022;28;20031;-75
2022/08/01 00:42:58;;;;;;;9.82;6.18;;;;;;;;;;4951252;29;20571;-75
2022/08/01 00:45:24;;;;;;;8.27;6.28;;;;;;;;;;4967477;28;20034;-76
2022/08/01 00:47:49;;;;;;;8.70;6.00;;;;;;;;;;4952630;28;20035;-75
2022/08/01 00:50:15;;;;;;;7.40;6.03;;;;;;;;;;4951275;29;20127;-75
2022/08/01 00:52:43;;;;;;;8.57;6.20;;;;;;;;;;4952886;28;20039;-75
2022/08/01 00:55:11;;;;;;;9.27;6.32;;;;;;;;;;4952709;28;20075;-75
2022/08/01 00:57:37;;;;;;;7.47;6.05;;;;;;;;;;4952778;28;20032;-75
2022/08/01 01:00:04;;;;;;;8.55;6.32;;;;;;;;;;4952431;28;20027;-75
2022/08/01 01:02:30;;;;;;;7.43;5.78;;;;;;;;;;4967134;28;20023;-75
2022/08/01 01:04:55;;;;;;;8.23;6.07;;;;;;;;;;4952295;28;20027;-75
2022/08/01 01:07:33;;;;;;;7.38;6.63;;;;;;;;;;4951099;29;20032;-76
2022/08/01 01:10:05;;;;;;;7.45;6.38;;;;;;;;;;4951215;29;20055;-75
2022/08/01 01:12:42;;;;;;;9.05;6.05;;;;;;;;;;4951225;29;20114;-75
2022/08/01 01:15:28;;;;;;;11.27;8.73;;;;;;;;;;4952096;28;20503;-75
2022/08/01 01:18:22;;;;;;;8.57;6.03;;;;;;;;;;4951279;29;20094;-75
2022/08/01 01:21:16;;;;;;;8.45;5.82;;;;;;;;;;4952361;28;20023;-76
2022/08/01 01:24:32;;;;;;;7.30;6.20;;;;;;;;;;4943222;28;20062;-75
2022/08/01 01:27:11;;;;;;;9.63;6.32;;;;;;;;;;4942024;29;20038;-76
2022/08/01 01:29:52;;;;;;;11.88;6.38;;;;;;;;;;4952549;28;20031;-76
2022/08/01 01:32:35;;;;;;;8.75;6.72;;;;;;;;;;4950238;29;20476;-75
2022/08/01 01:35:07;;;;;;;8.27;6.88;;;;;;;;;;4951829;28;20067;-77
2022/08/01 01:37:35;;;;;;;9.60;6.78;;;;;;;;;;4951936;28;20031;-76
2022/08/01 01:40:02;;;;;;;7.30;6.47;;;;;;;;;;4951687;28;20514;-76
2022/08/01 01:42:30;;;;;;;7.00;6.03;;;;;;;;;;4950882;29;20027;-76
2022/08/01 01:44:56;;;;;;;9.45;6.82;;;;;;;;;;4966579;28;20047;-75
2022/08/01 01:47:24;;;;;;;6.88;6.18;;;;;;;;;;4952098;28;20061;-76
2022/08/01 01:49:52;;;;;;;10.85;6.90;;;;;;;;;;4950492;29;20062;-76
2022/08/01 01:52:19;;;;;;;12.68;6.90;;;;;;;;;;4950402;29;20035;-76
2022/08/01 01:54:48;;;;;;;11.50;6.65;;;;;;;;;;4950634;29;20109;-76
2022/08/01 01:57:15;;;;;;;10.73;7.00;;;;;;;;;;4966293;28;20023;-76
2022/08/01 01:59:41;;;;;;;9.13;6.03;;;;;;;;;;4950432;29;20051;-74
2022/08/01 02:02:09;;;;;;;7.63;6.88;;;;;;;;;;4951604;28;20031;-76
2022/08/01 02:04:44;;;;;;;7.90;6.70;;;;;;;;;;4966309;28;20019;-76
2022/08/01 02:07:14;;;;;;;6.93;6.07;;;;;;;;;;4950225;29;20027;-76
2022/08/01 02:09:42;;;;;;;10.93;7.03;;;;;;;;;;4951772;28;20123;-76
2022/08/01 02:12:11;;;;;;;8.98;6.60;;;;;;;;;;4951647;28;20027;-76
2022/08/01 02:14:39;;;;;;;6.72;6.07;;;;;;;;;;4950498;29;20142;-76
2022/08/01 02:17:05;;;;;;;13.43;6.38;;;;;;;;;;4951490;28;20031;-74
2022/08/01 02:19:34;;;;;;;9.68;6.50;;;;;;;;;;4951717;28;20035;-75
2022/08/01 02:22:05;;;;;;;7.63;6.82;;;;;;;;;;4950337;28;20043;-75
2022/08/01 02:24:54;;;;;;;8.90;6.85;;;;;;;;;;4936613;28;20020;-75
2022/08/01 02:27:35;;;;;;;9.60;6.97;;;;;;;;;;4932308;29;20038;-76
2022/08/01 02:30:04;;;;;;;6.97;6.28;;;;;;;;;;4932306;29;20035;-75
2022/08/01 02:32:41;;;;;;;7.70;6.18;;;;;;;;;;4946998;29;20050;-75
2022/08/01 02:35:11;;;;;;;11.68;6.97;;;;;;;;;;4931038;29;20024;-75
2022/08/01 02:37:38;;;;;;;14.23;6.70;;;;;;;;;;4931133;29;20469;-75
2022/08/01 02:40:07;;;;;;;7.93;6.40;;;;;;;;;;4932158;29;20043;-75
2022/08/01 02:42:37;;;;;;;12.43;7.43;;;;;;;;;;4947022;29;20079;-75
2022/08/01 02:45:08;;;;;;;10.70;6.97;;;;;;;;;;4932271;29;20066;-76
2022/08/01 02:47:37;;;;;;;8.05;6.97;;;;;;;;;;4934633;29;20039;-75
2022/08/01 02:50:03;;;;;;;11.38;7.35;;;;;;;;;;4934131;29;20024;-75
2022/08/01 02:52:31;;;;;;;8.90;6.85;;;;;;;;;;4934487;29;20540;-75
2022/08/01 02:54:58;;;;;;;8.43;6.80;;;;;;;;;;4934444;29;20028;-75
2022/08/01 02:57:24;;;;;;;7.80;6.90;;;;;;;;;;4935620;29;20074;-75
2022/08/01 02:59:51;;;;;;;9.55;6.95;;;;;;;;;;4934613;29;20027;-76
2022/08/01 03:02:17;;;;;;;7.32;6.65;;;;;;;;;;4934323;29;20115;-75
2022/08/01 03:04:44;;;;;;;7.00;6.28;;;;;;;;;;4934333;29;20028;-75
2022/08/01 03:07:12;;;;;;;10.80;6.13;;;;;;;;;;4934120;29;20051;-75
2022/08/01 03:09:43;;;;;;;17.25;5.80;;;;;;;;;;4935414;29;20408;-75
2022/08/01 03:12:16;;;;;;;14.52;7.05;;;;;;;;;;4935391;29;20065;-75
2022/08/01 03:14:44;;;;;;;8.02;6.63;;;;;;;;;;4935881;29;20034;-75
2022/08/01 03:17:11;;;;;;;10.13;6.43;;;;;;;;;;4935702;29;20046;-75
2022/08/01 03:19:38;;;;;;;10.13;6.20;;;;;;;;;;4942175;29;20027;-75
2022/08/01 03:22:07;;;;;;;9.13;7.18;;;;;;;;;;4942559;29;20042;-75
2022/08/01 03:24:34;;;;;;;8.98;6.90;;;;;;;;;;4956628;29;20038;-75
2022/08/01 03:27:01;;;;;;;10.63;7.63;;;;;;;;;;4954776;28;20039;-75
2022/08/01 03:29:29;;;;;;;8.30;6.80;;;;;;;;;;4953294;29;20557;-76
2022/08/01 03:31:55;;;;;;;7.80;6.78;;;;;;;;;;4952907;29;20101;-74
2022/08/01 03:34:21;;;;;;;9.27;7.05;;;;;;;;;;4953838;28;20511;-75
2022/08/01 03:36:53;;;;;;;11.57;7.10;;;;;;;;;;4952639;29;20087;-74
2022/08/01 03:39:19;;;;;;;;;;;;;;;;;;4952887;29;20336;-73
2022/08/01 03:41:51;;;;;;;8.43;6.50;;;;;;;;;;4968318;28;19921;-76
2022/08/01 03:44:22;;;;;;;7.30;6.50;;;;;;;;;;4953925;28;20024;-74
2022/08/01 03:46:53;;;;;;;7.90;7.10;;;;;;;;;;4952512;29;20122;-74
2022/08/01 03:49:24;;;;;;;9.53;6.80;;;;;;;;;;4952503;29;20695;-76
2022/08/01 03:51:52;;;;;;;9.52;7.50;;;;;;;;;;4952691;29;20035;-76
2022/08/01 03:54:22;;;;;;;9.75;7.28;;;;;;;;;;4954056;28;20053;-75
2022/08/01 03:56:49;;;;;;;14.00;7.70;;;;;;;;;;4953713;28;20081;-76
2022/08/01 03:59:16;;;;;;;10.25;7.10;;;;;;;;;;4952397;29;20539;-76
2022/08/01 04:01:43;;;;;;;7.25;6.60;;;;;;;;;;4953755;28;20454;-76
2022/08/01 04:04:09;;;;;;;9.20;6.88;;;;;;;;;;4952138;29;20032;-74
2022/08/01 04:06:38;;;;;;;8.15;6.85;;;;;;;;;;4953381;28;20035;-74
2022/08/01 04:09:03;;;;;;;8.90;6.82;;;;;;;;;;4953363;29;20513;-75
2022/08/01 04:11:29;;;;;;;10.68;7.03;;;;;;;;;;4968207;28;20047;-76
2022/08/01 04:13:55;;;;;;;8.80;6.72;;;;;;;;;;4951906;29;20038;-76
2022/08/01 04:16:22;;;;;;;15.80;7.65;;;;;;;;;;4953853;28;20041;-76
2022/08/01 04:18:48;;;;;;;8.35;7.22;;;;;;;;;;4952435;29;20025;-74
2022/08/01 04:21:16;;;;;;;10.63;7.40;;;;;;;;;;4951861;28;20027;-75
2022/08/01 04:23:44;;;;;;;7.90;7.20;;;;;;;;;;4943190;29;20028;-74
2022/08/01 04:26:12;;;;;;;11.13;7.38;;;;;;;;;;4933902;29;20039;-75
2022/08/01 04:28:41;;;;;;;13.05;8.90;;;;;;;;;;4932526;29;20079;-75
2022/08/01 04:31:09;;;;;;;14.32;7.68;;;;;;;;;;4932552;29;20031;-74
2022/08/01 04:33:39;;;;;;;10.48;7.03;;;;;;;;;;4933911;29;20102;-74
2022/08/01 04:36:07;;;;;;;10.23;7.68;;;;;;;;;;4932709;29;20070;-75
2022/08/01 04:38:36;;;;;;;15.38;8.00;;;;;;;;;;4934134;29;20028;-76
2022/08/01 04:41:02;;;;;;;15.70;7.82;;;;;;;;;;4933435;29;20110;-76
2022/08/01 04:43:28;;;;;;;11.52;8.07;;;;;;;;;;4934766;29;20024;-76
2022/08/01 04:45:54;;;;;;;12.68;7.32;;;;;;;;;;4934313;29;20452;-75
2022/08/01 04:48:24;;;;;;;10.10;7.45;;;;;;;;;;4933483;29;20031;-76
2022/08/01 04:50:49;;;;;;;10.45;7.50;;;;;;;;;;4933658;29;20055;-76
2022/08/01 04:53:17;;;;;;;10.18;7.85;;;;;;;;;;4933161;29;20468;-76
2022/08/01 04:55:43;;;;;;;10.32;8.15;;;;;;;;;;4932402;29;20496;-76
2022/08/01 04:58:13;;;;;;;9.80;7.82;;;;;;;;;;4933018;29;20075;-76
2022/08/01 05:00:39;;;;;;;12.95;7.55;;;;;;;;;;4932694;29;20469;-75
2022/08/01 05:03:04;;;;;;;9.98;7.40;;;;;;;;;;4948088;29;20034;-75
2022/08/01 05:05:34;;;;;;;9.65;7.13;;;;;;;;;;4932058;29;20148;-74
2022/08/01 05:08:00;;;;;;;8.35;7.25;;;;;;;;;;4931406;29;20075;-75
2022/08/01 05:10:26;;;;;;;8.82;6.80;;;;;;;;;;4931545;29;20567;-75
2022/08/01 05:12:52;;;;;;;12.25;8.18;;;;;;;;;;4931992;29;20130;-75
2022/08/01 05:15:17;;;;;;;8.60;6.80;;;;;;;;;;4932899;29;20170;-74
2022/08/01 05:17:43;;;;;;;7.55;6.72;;;;;;;;;;4933024;29;20027;-75
2022/08/01 05:20:09;;;;;;;11.63;8.15;;;;;;;;;;4933277;28;20110;-75
2022/08/01 05:22:35;;;;;;;13.85;7.75;;;;;;;;;;4950560;28;20047;-75
2022/08/01 05:25:00;;;;;;;8.85;7.18;;;;;;;;;;4942738;29;20375;-76
2022/08/01 05:27:27;;;;;;;10.73;7.07;;;;;;;;;;4966593;28;20035;-74
2022/08/01 05:29:53;;;;;;;8.95;7.28;;;;;;;;;;4951463;28;20027;-76
2022/08/01 05:32:18;;;;;;;13.60;6.85;;;;;;;;;;4951955;28;20028;-75
2022/08/01 05:34:44;;;;;;;10.10;8.18;;;;;;;;;;4950796;29;20082;-75
2022/08/01 05:37:09;;;;;;;10.93;7.05;;;;;;;;;;4949914;29;20035;-76
2022/08/01 05:39:58;;;;;;;16.80;7.13;;;;;;;;;;4963160;28;20037;-76
2022/08/01 05:42:24;;;;;;;8.50;7.57;;;;;;;;;;4941705;29;20434;-74
2022/08/01 05:44:51;;;;;;;11.20;7.38;;;;;;;;;;4951779;29;20027;-74
2022/08/01 05:47:17;;;;;;;11.38;10.27;;;;;;;;;;4951208;28;20435;-74
2022/08/01 05:49:43;;;;;;;8.30;7.28;;;;;;;;;;4944656;29;20034;-73
2022/08/01 05:52:09;;;;;;;14.48;7.60;;;;;;;;;;4949322;29;20031;-75
2022/08/01 05:54:34;;;;;;;8.93;7.45;;;;;;;;;;4943554;28;20110;-79
2022/08/01 05:57:01;;;;;;;9.27;8.27;;;;;;;;;;4951116;28;20147;-77
2022/08/01 05:59:30;;;;;;;13.38;8.30;;;;;;;;;;4962769;28;20071;-76
2022/08/01 06:01:56;;;;;;;12.05;7.20;;;;;;;;;;4944622;29;20019;-76
2022/08/01 06:04:21;;;;;;;10.60;7.68;;;;;;;;;;4943416;29;20031;-74
2022/08/01 06:06:47;;;;;;;10.95;6.70;;;;;;;;;;4951405;29;20489;-73
2022/08/01 06:09:12;;;;;;;8.10;6.95;;;;;;;;;;4960910;28;20113;-75
2022/08/01 06:11:40;;;;;;;16.77;8.13;;;;;;;;;;4939198;28;20488;-77
2022/08/01 06:14:06;;;;;;;10.40;7.90;;;;;;;;;;4943498;28;21668;-76
2022/08/01 06:16:31;;;;;;;9.75;8.05;;;;;;;;;;4954106;28;20490;-75
2022/08/01 06:18:57;;;;;;;10.60;7.00;;;;;;;;;;4938278;28;20051;-75
2022/08/01 06:21:22;;;;;;;11.57;7.75;;;;;;;;;;4946627;28;20125;-78
2022/08/01 06:23:49;;;;;;;14.30;7.45;;;;;;;;;;4957422;28;20036;-76
2022/08/01 06:26:18;;;;;;;11.15;7.15;;;;;;;;;;4944199;29;20261;-76
2022/08/01 06:28:43;;;;;;;13.43;8.27;;;;;;;;;;4946533;29;20109;-80
2022/08/01 06:31:11;;;;;;;9.38;8.32;;;;;;;;;;4948272;28;20483;-76
2022/08/01 06:33:36;;;;;;;13.52;7.40;;;;;;;;;;4952571;28;20063;-76
2022/08/01 06:36:02;;;;;;;9.95;7.47;;;;;;;;;;4948701;29;20441;-77
2022/08/01 06:38:28;;;;;;;7.97;7.00;;;;;;;;;;4946928;28;20090;-74
2022/08/01 06:40:55;;;;;;;8.73;7.00;;;;;;;;;;4945878;28;20435;-78
2022/08/01 06:43:21;;;;;;;13.65;7.55;;;;;;;;;;4938084;29;20035;-79
2022/08/01 06:45:48;;;;;;;15.02;7.68;;;;;;;;;;4939657;28;20144;-80
2022/08/01 06:48:14;;;;;;;10.85;6.68;;;;;;;;;;4934103;29;20054;-77
2022/08/01 06:50:39;;;;;;;7.15;6.40;;;;;;;;;;4965954;28;20444;-80
2022/08/01 06:53:05;;;;;;;8.38;6.68;;;;;;;;;;4942641;29;20038;-77
2022/08/01 06:55:31;;;;;;;7.10;5.25;;;;;;;;;;4948134;28;20042;-78
2022/08/01 06:57:56;;;;;;;7.10;5.47;;;;;;;;;;4949045;29;20028;-80
2022/08/01 07:00:24;;;;;;;8.43;4.95;;;;;;;;;;4952211;29;20220;-77
2022/08/01 07:02:50;;;;;;;5.15;4.57;;;;;;;;;;4948132;28;20023;-77
2022/08/01 07:05:16;;;;;;;7.45;5.07;;;;;;;;;;4941078;28;20054;-79
2022/08/01 07:07:42;;;;;;;6.72;5.78;;;;;;;;;;4958431;28;20038;-77
2022/08/01 07:10:08;;;;;;;10.38;5.68;;;;;;;;;;4949912;28;20902;-80
2022/08/01 07:12:36;;;;;;;7.45;4.70;;;;;;;;;;4931307;28;20094;-79
2022/08/01 07:15:03;;;;;;;7.55;4.20;;;;;;;;;;4945888;28;20313;-78
2022/08/01 07:17:29;;;;;;;4.78;3.83;;;;;;;;;;4942484;28;20046;-79
2022/08/01 07:19:54;;;;;;;7.32;4.03;;;;;;;;;;4944822;28;20031;-76
2022/08/01 07:22:23;;;;;;;6.93;4.25;;;;;;;;;;4955728;28;20042;-76
2022/08/01 07:24:48;;;;;;;6.70;3.97;;;;;;;;;;4936905;29;20169;-75
2022/08/01 07:27:14;;;;;;;4.80;3.53;;;;;;;;;;4941012;29;20143;-76
2022/08/01 07:29:39;;;;;;;7.40;3.85;;;;;;;;;;4932403;28;20420;-76
2022/08/01 07:32:05;;;;;;;6.90;4.07;;;;;;;;;;4948756;28;20443;-75
2022/08/01 07:34:31;;;;;;;4.47;3.67;;;;;;;;;;4951743;28;20036;-76
2022/08/01 07:36:56;;;;;;;8.73;4.22;;;;;;;;;;4932691;28;20081;-75
2022/08/01 07:39:22;;;;;;;4.00;3.60;;;;;;;;;;4934498;29;20027;-76
2022/08/01 07:41:47;;;;;;;6.78;3.83;;;;;;;;;;4938346;28;20142;-76
2022/08/01 07:44:13;;;;;;;8.90;4.10;;;;;;;;;;4944075;28;20039;-76
2022/08/01 07:46:40;;;;;;;4.00;3.38;;;;;;;;;;4940570;28;21151;-78
2022/08/01 07:49:05;;;;;;;5.95;3.33;;;;;;;;;;4955193;28;20455;-74
2022/08/01 07:51:31;;;;;;;4.80;3.80;;;;;;;;;;4951240;28;20142;-75
2022/08/01 07:53:56;;;;;;;4.50;3.65;;;;;;;;;;4947068;28;20051;-75
2022/08/01 07:56:23;;;;;;;5.90;3.30;;;;;;;;;;4957924;28;20054;-76
2022/08/01 07:58:49;;;;;;;5.63;3.78;;;;;;;;;;4965253;28;20038;-75
2022/08/01 08:01:17;;;;;;;4.30;3.90;;;;;;;;;;4952187;28;20026;-75
2022/08/01 08:03:43;;;;;;;7.88;3.63;;;;;;;;;;4963496;28;20085;-76
2022/08/01 08:06:08;;;;;;;5.85;3.78;;;;;;;;;;4955977;28;20049;-76
2022/08/01 08:08:35;;;;;;;6.63;4.30;;;;;;;;;;4957741;28;20023;-75
2022/08/01 08:11:01;;;;;;;4.90;3.80;;;;;;;;;;4967827;28;20054;-74
2022/08/01 08:13:26;;;;;;;4.88;3.85;;;;;;;;;;4951322;28;20062;-75
2022/08/01 08:15:52;;;;;;;4.57;3.90;;;;;;;;;;4957160;28;20510;-76
2022/08/01 08:18:18;;;;;;;5.65;3.92;;;;;;;;;;4968700;28;20034;-75
2022/08/01 08:20:43;;;;;;;7.10;3.40;;;;;;;;;;4967709;28;20115;-76
2022/08/01 08:25:55;;;;;;;4.85;3.97;;;;;;;;;;4951285;28;20577;-76
2022/08/01 08:28:20;;;;;;;7.82;3.95;;;;;;;;;;4953161;28;20030;-76
2022/08/01 08:30:46;;;;;;;4.30;3.47;;;;;;;;;;4957518;28;20106;-77
2022/08/01 08:33:11;;;;;;;4.70;4.13;;;;;;;;;;4973884;28;20464;-75
2022/08/01 08:35:40;;;;;;;4.85;3.92;;;;;;;;;;4970145;28;20085;-75
2022/08/01 08:38:06;;;;;;;3.75;3.20;;;;;;;;;;4954407;28;20027;-74
2022/08/01 08:40:34;;;;;;;8.68;3.78;;;;;;;;;;4971116;28;20547;-75
2022/08/01 08:43:02;;;;;;;4.90;3.38;;;;;;;;;;4959360;28;20089;-76
2022/08/01 08:45:27;;;;;;;6.93;3.30;;;;;;;;;;4951526;28;20042;-75
2022/08/01 08:47:54;;;;;;;5.05;3.00;;;;;;;;;;4965240;28;20053;-77
2022/08/01 08:50:20;;;;;;;4.55;3.35;;;;;;;;;;4958773;28;20035;-76
2022/08/01 08:52:48;;;;;;;34.22;6.38;;;;;;;;;;4968470;28;20031;-75
2022/08/01 08:55:16;;;;;;;4.53;3.47;;;;;;;;;;4952899;28;20026;-75
2022/08/01 08:57:44;;;;;;;4.32;2.78;;;;;;;;;;4950261;28;20045;-76
2022/08/01 09:00:11;;;;;;;3.40;2.83;;;;;;;;;;4951275;28;20035;-75
2022/08/01 09:02:42;;;;;;;3.53;2.63;;;;;;;;;;4949671;28;20113;-75
2022/08/01 09:05:09;;;;;;;6.60;2.90;;;;;;;;;;4949470;28;20125;-75
2022/08/01 09:07:34;;;;;;;5.72;3.50;;;;;;;;;;4947789;28;20031;-75
2022/08/01 09:10:00;;;;;;;4.70;2.60;;;;;;;;;;4955950;28;20427;-74
2022/08/01 09:12:26;;;;;;;44.88;7.85;;;;;;;;;;4963435;28;20599;-75
2022/08/01 09:14:53;;;;;;;57.58;29.10;;;;;;;;;;4968194;28;20030;-76
2022/08/01 09:17:19;;;;;;;6.75;3.30;;;;;;;;;;4947691;28;20039;-75
2022/08/01 09:20:04;;;;;;;4.72;2.92;;;;;;;;;;4966715;28;20031;-76
2022/08/01 09:22:33;;;;;;;4.80;3.35;;;;;;;;;;4952891;28;20321;-76
2022/08/01 09:25:08;;;;;;;6.82;2.67;;;;;;;;;;4945467;28;20046;-76
2022/08/01 09:27:35;;;;;;;3.35;2.53;;;;;;;;;;4967567;28;20027;-76
2022/08/01 09:30:26;;;;;;;3.28;2.97;;;;;;;;;;4952083;28;20660;-74
2022/08/01 09:33:01;;;;;;;5.63;2.63;;;;;;;;;;4963759;28;20035;-76
2022/08/01 09:35:34;;;;;;;3.70;2.53;;;;;;;;;;4957996;28;20057;-75
2022/08/01 09:38:21;;;;;;;4.55;2.65;;;;;;;;;;4959578;28;20391;-75
2022/08/01 09:40:52;;;;;;;5.80;2.47;;;;;;;;;;4951435;28;20034;-75
2022/08/01 09:43:19;;;;;;;3.55;2.17;;;;;;;;;;4948726;28;20089;-75
2022/08/01 09:45:45;;;;;;;4.68;2.78;;;;;;;;;;4952527;28;20443;-75
2022/08/01 09:48:15;;;;;;;5.32;2.42;;;;;;;;;;4951179;28;20042;-76
2022/08/01 09:50:46;;;;;;;6.32;3.03;;;;;;;;;;4957731;28;20142;-77
2022/08/01 09:53:12;;;;;;;2.30;1.80;;;;;;;;;;4947687;28;20043;-75
2022/08/01 09:55:39;;;;;;;3.00;1.98;;;;;;;;;;4957438;28;20034;-75
2022/08/01 09:58:05;;;;;;;2.78;2.28;;;;;;;;;;4973036;28;20751;-74
2022/08/01 10:00:32;;;;;;;1.92;1.77;;;;;;;;;;4970502;28;20097;-74
2022/08/01 10:02:59;;;;;;;6.90;2.10;;;;;;;;;;4955537;28;20046;-75
2022/08/01 10:05:35;;;;;;;5.38;2.63;;;;;;;;;;4947967;28;20037;-74
2022/08/01 10:08:04;;;;;;;1.70;1.60;;;;;;;;;;4955858;28;20043;-75
2022/08/01 10:10:33;;;;;;;2.85;1.70;;;;;;;;;;4956281;28;20574;-74
2022/08/01 10:12:59;;;;;;;4.43;2.10;;;;;;;;;;4954837;28;20162;-73
2022/08/01 10:15:26;;;;;;;3.28;1.83;;;;;;;;;;4964966;28;20376;-76
2022/08/01 10:17:56;;;;;;;3.88;2.05;;;;;;;;;;4961216;28;20037;-75
2022/08/01 10:20:24;;;;;;;1.95;1.60;;;;;;;;;;4959252;28;20034;-74
2022/08/01 10:22:53;;;;;;;7.53;2.03;;;;;;;;;;4958181;28;20093;-76
2022/08/01 10:25:21;;;;;;;1.40;1.30;;;;;;;;;;4967310;28;20031;-75
2022/08/01 10:27:54;;;;;;;2.10;1.38;;;;;;;;;;4949881;28;20070;-75
2022/08/01 10:30:20;;;;;;;4.80;1.50;;;;;;;;;;4957307;28;20081;-75
2022/08/01 10:32:47;;;;;;;1.40;0.90;;;;;;;;;;4953001;28;20034;-76
2022/08/01 10:35:17;;;;;;;1.40;1.20;;;;;;;;;;4969920;28;20085;-73
2022/08/01 10:37:45;;;;;;;2.50;1.00;;;;;;;;;;4965660;28;20035;-76
2022/08/01 10:40:15;;;;;;;1.20;1.08;;;;;;;;;;4971429;28;20491;-76
2022/08/01 10:42:45;;;;;;;0.95;0.77;;;;;;;;;;4955281;28;20138;-74
2022/08/01 10:45:13;;;;;;;4.18;1.00;;;;;;;;;;4956903;28;20406;-74
2022/08/01 10:47:55;;;;;;;2.10;0.70;;;;;;;;;;4958250;28;20035;-76
2022/08/01 10:50:52;;;;;;;2.75;0.82;;;;;;;;;;4941182;28;20041;-74
2022/08/01 10:53:20;;;;;;;2.08;0.90;;;;;;;;;;4953154;28;20051;-75
2022/08/01 10:55:52;;;;;;;3.92;0.80;;;;;;;;;;4952956;28;20027;-76
2022/08/01 10:58:21;;;;;;;3.38;0.65;;;;;;;;;;4953160;28;20046;-74
2022/08/01 11:00:47;;;;;;;0.57;0.52;;;;;;;;;;4966040;28;20121;-75
2022/08/01 11:03:12;;;;;;;0.73;0.65;;;;;;;;;;4957321;28;20695;-74
2022/08/01 11:05:42;;;;;;;3.42;1.52;;;;;;;;;;4968063;28;20034;-74
2022/08/01 11:08:21;;;;;;;1.63;0.90;;;;;;;;;;4952306;28;20027;-75
2022/08/01 11:10:47;;;;;;;3.70;1.20;;;;;;;;;;4972553;28;20046;-74
2022/08/01 11:13:13;;;;;;;1.10;0.88;;;;;;;;;;4953205;28;20031;-74
2022/08/01 11:15:41;;;;;;;0.98;0.63;;;;;;;;;;4957564;28;20131;-75
2022/08/01 11:18:31;;;;;;;0.75;0.73;;;;;;;;;;4952697;28;20046;-74
2022/08/01 11:20:59;;;;;;;2.42;0.82;;;;;;;;;;4960501;28;20033;-74
2022/08/01 11:23:28;;;;;;;2.45;0.90;;;;;;;;;;4956844;28;20031;-75
2022/08/01 11:25:53;;;;;;;2.45;0.98;;;;;;;;;;4954778;28;20027;-75
2022/08/01 11:28:25;;;;;;;1.63;1.45;;;;;;;;;;4952618;28;20066;-74
2022/08/01 11:30:54;;;;;;;1.38;1.20;;;;;;;;;;4964608;28;20061;-76
2022/08/01 11:33:42;;;;;;;1.27;0.93;;;;;;;;;;4965581;28;20398;-75
2022/08/01 11:36:13;;;;;;;1.20;1.10;;;;;;;;;;4947878;28;20133;-76
2022/08/01 11:39:02;;;;;;;1.05;0.93;;;;;;;;;;4959810;28;20035;-74
2022/08/01 11:41:34;;;;;;;1.55;0.85;;;;;;;;;;4955744;28;20055;-75
2022/08/01 11:44:10;;;;;;;0.73;0.68;;;;;;;;;;4963766;28;20035;-76
2022/08/01 11:46:54;;;;;;;0.93;0.82;;;;;;;;;;4948417;28;20047;-78
2022/08/01 11:49:40;;;;;;;0.95;0.75;;;;;;;;;;4970800;28;20610;-76
2022/08/01 11:52:11;;;;;;;1.85;0.70;;;;;;;;;;4956179;28;20106;-75
2022/08/01 11:54:40;;;;;;;;;;;;;;;;;;4951731;28;20041;-74
2022/08/01 11:57:09;;;;;;;1.33;0.88;;;;;;;;;;4963214;28;19976;-75
2022/08/01 11:59:50;;;;;;;0.82;0.82;;;;;;;;;;4953855;28;20147;-73
2022/08/01 12:02:19;;;;;;;3.00;1.10;;;;;;;;;;4955047;28;20098;-74
2022/08/01 12:04:53;;;;;;;3.72;1.38;;;;;;;;;;4951782;28;20034;-75
2022/08/01 12:07:19;;;;;;;1.30;0.90;;;;;;;;;;4953715;28;20100;-76
2022/08/01 12:09:46;;;;;;;1.58;1.27;;;;;;;;;;4938410;28;20055;-76
2022/08/01 12:12:16;;;;;;;3.00;1.45;;;;;;;;;;4978559;28;20043;-74
2022/08/01 12:14:42;;;;;;;3.42;1.60;;;;;;;;;;4970974;28;20033;-75
2022/08/01 12:17:08;;;;;;;4.88;1.50;;;;;;;;;;4951295;28;20039;-77
2022/08/01 12:19:36;;;;;;;3.65;2.10;;;;;;;;;;4950705;28;20065;-75
2022/08/01 12:22:14;;;;;;;2.47;2.00;;;;;;;;;;4971259;28;20030;-75
2022/08/01 12:24:42;;;;;;;5.10;1.98;;;;;;;;;;4947948;28;20059;-74
2022/08/01 12:27:10;;;;;;;2.30;1.98;;;;;;;;;;4957321;28;20075;-76
2022/08/01 12:29:40;;;;;;;1.65;1.38;;;;;;;;;;4969264;28;20497;-74
2022/08/01 12:32:22;;;;;;;;;;;;;;;;;;4951383;28;20126;-75
2022/08/01 12:34:49;;;;;;;3.42;2.58;;;;;;;;;;4948375;28;20539;-74
2022/08/01 12:37:15;;;;;;;1.85;1.75;;;;;;;;;;4952274;28;20038;-74
2022/08/01 12:39:40;;;;;;;1.58;1.45;;;;;;;;;;4959720;28;20041;-75
2022/08/01 12:42:10;;;;;;;1.77;1.33;;;;;;;;;;4970986;28;20170;-75
2022/08/01 12:44:38;;;;;;;3.28;1.65;;;;;;;;;;4946893;28;20083;-75
2022/08/01 12:47:06;;;;;;;2.25;1.83;;;;;;;;;;4943810;28;20042;-75
2022/08/01 12:49:38;;;;;;;1.25;1.10;;;;;;;;;;4937260;28;20065;-74
2022/08/01 12:52:04;;;;;;;1.60;1.15;;;;;;;;;;4955042;28;20030;-74
2022/08/01 12:54:30;;;;;;;1.20;1.02;;;;;;;;;;4962074;28;20053;-75
2022/08/01 12:56:56;;;;;;;4.03;1.13;;;;;;;;;;4965105;28;20086;-75
2022/08/01 12:59:27;;;;;;;1.60;1.10;;;;;;;;;;4954142;28;20061;-75
2022/08/01 13:01:56;;;;;;;;;;;;;;;;;;4956454;28;20690;-75
2022/08/01 13:04:22;;;;;;;1.50;0.82;;;;;;;;;;4967273;28;19976;-73
2022/08/01 13:06:55;;;;;;;2.83;0.75;;;;;;;;;;4960691;28;20106;-74
2022/08/01 13:09:21;;;;;;;0.75;0.75;;;;;;;;;;4962666;28;20054;-76
2022/08/01 13:11:47;;;;;;;9.57;1.05;;;;;;;;;;4964982;28;20045;-75
2022/08/01 13:14:29;;;;;;;7.10;1.58;;;;;;;;;;4951356;28;20113;-76
2022/08/01 13:16:54;;;;;;;3.75;0.90;;;;;;;;;;4968380;28;20054;-74
2022/08/01 13:19:19;;;;;;;2.03;1.10;;;;;;;;;;4972996;28;20126;-76
2022/08/01 13:21:56;;;;;;;2.40;1.33;;;;;;;;;;4956698;28;20582;-74
2022/08/01 13:24:33;;;;;;;1.67;1.25;;;;;;;;;;4959050;28;20311;-74
2022/08/01 13:27:03;;;;;;;2.53;1.05;;;;;;;;;;4953625;28;20437;-75
2022/08/01 13:29:49;;;;;;;1.83;1.27;;;;;;;;;;4950757;28;20031;-75
2022/08/01 13:32:17;;;;;;;1.77;1.20;;;;;;;;;;4950323;28;20055;-74
2022/08/01 13:34:43;;;;;;;3.80;1.05;;;;;;;;;;4953236;28;20130;-75
2022/08/01 13:37:08;;;;;;;3.15;1.33;;;;;;;;;;4962907;28;20031;-79
2022/08/01 13:39:40;;;;;;;1.33;1.10;;;;;;;;;;4962871;28;20026;-76
2022/08/01 13:42:09;;;;;;;1.10;1.00;;;;;;;;;;4950544;28;20853;-76
2022/08/01 13:44:35;;;;;;;3.38;1.25;;;;;;;;;;4942838;28;20057;-76
2022/08/01 13:47:02;;;;;;;3.42;1.15;;;;;;;;;;4970857;28;20031;-76
2022/08/01 13:49:38;;;;;;;1.50;1.15;;;;;;;;;;4951496;28;20035;-75
2022/08/01 13:52:19;;;;;;;1.00;0.90;;;;;;;;;;4955811;28;20035;-75
2022/08/01 13:54:53;;;;;;;1.35;1.00;;;;;;;;;;4951810;28;20092;-76
2022/08/01 13:57:19;;;;;;;3.80;1.02;;;;;;;;;;4951855;28;20039;-75
2022/08/01 13:59:44;;;;;;;1.83;0.80;;;;;;;;;;4955795;28;20039;-77
2022/08/01 14:02:10;;;;;;;1.30;0.70;;;;;;;;;;4951105;28;20156;-72
2022/08/01 14:04:35;;;;;;;4.75;4.05;;;;;;;;;;4955119;28;20175;-78
2022/08/01 14:07:01;;;;;;;2.53;1.50;;;;;;;;;;4962210;28;20379;-78
2022/08/01 14:09:27;;;;;;;1.65;1.17;;;;;;;;;;4977301;28;20686;-78
2022/08/01 14:11:53;;;;;;;0.80;0.80;;;;;;;;;;4964230;28;20064;-78
2022/08/01 14:14:20;;;;;;;1.92;1.00;;;;;;;;;;4961520;28;20910;-77
2022/08/01 14:16:46;;;;;;;3.70;1.00;;;;;;;;;;4959743;28;20111;-77
2022/08/01 14:19:12;;;;;;;2.17;0.70;;;;;;;;;;4979755;28;20094;-78
2022/08/01 14:21:39;;;;;;;5.20;1.20;;;;;;;;;;4966197;28;20035;-79
2022/08/01 14:24:06;;;;;;;2.05;1.10;;;;;;;;;;4959791;28;20031;-77
2022/08/01 14:26:32;;;;;;;2.30;0.47;;;;;;;;;;4962875;28;20467;-78
2022/08/01 14:28:57;;;;;;;2.33;1.33;;;;;;;;;;4966873;28;20073;-77
2022/08/01 14:31:23;;;;;;;1.17;0.90;;;;;;;;;;4967646;28;20027;-78
2022/08/01 14:33:49;;;;;;;4.00;0.60;;;;;;;;;;4979486;28;20031;-78
2022/08/01 14:36:15;;;;;;;3.92;0.80;;;;;;;;;;4976287;28;20031;-78
2022/08/01 14:38:40;;;;;;;0.80;0.60;;;;;;;;;;4959734;28;20027;-76
2022/08/01 14:41:06;;;;;;;0.60;0.60;;;;;;;;;;4979586;28;20032;-76
2022/08/01 14:43:32;;;;;;;2.05;0.82;;;;;;;;;;4984137;28;21514;-73
2022/08/01 14:45:59;;;;;;;1.52;0.90;;;;;;;;;;4972772;28;20106;-80
2022/08/01 14:48:25;;;;;;;3.92;1.20;;;;;;;;;;4987462;28;20911;-78
2022/08/01 14:50:51;;;;;;;0.88;0.80;;;;;;;;;;4983715;28;20129;-77
2022/08/01 14:53:17;;;;;;;4.63;1.15;;;;;;;;;;4971240;28;20109;-77